Time;durP1;ratioP1;P1;durP2;ratioP2;P2;SDS_P1;SDS_P2;PMS_P1;PMS_P2;Temp;Humidity;BMP_temperature;BMP_pressure;BME280_temperature;BME280_humidity;BME280_pressure;Samples;Min_cycle;Max_cycle;Signal;HPM_P1;HPM_P2
2022/04/03 00:00:13;;;;;;;8.27;3.13;;;-0.90;99.90;;;;;;5008559;28;20488;-84
2022/04/03 00:02:58;;;;;;;5.50;3.07;;;;;;;;;;4994235;28;20056;-84
2022/04/03 00:05:43;;;;;;;7.47;3.10;;;;;;;;;;5009159;28;20041;-84
2022/04/03 00:08:28;;;;;;;4.93;2.57;;;;;;;;;;5008342;28;20056;-83
2022/04/03 00:11:13;;;;;;;6.83;3.07;;;;;;;;;;4980116;28;20520;-84
2022/04/03 00:13:58;;;;;;;8.23;2.93;;;;;;;;;;4994165;28;20079;-84
2022/04/03 00:16:42;;;;;;;5.10;3.13;;;;;;;;;;5008780;28;20076;-84
2022/04/03 00:19:27;;;;;;;6.60;2.87;;;;;;;;;;4993394;28;20094;-84
2022/04/03 00:22:12;;;;;;;5.93;2.83;;;;;;;;;;4993715;28;20044;-85
2022/04/03 00:24:56;;;;;;;9.53;4.40;;;;;;;;;;4996115;28;20489;-84
2022/04/03 00:27:41;;;;;;;5.47;2.33;;;;;;;;;;5012090;28;20072;-84
2022/04/03 00:30:25;;;;;;;5.10;2.93;;;;;;;;;;4996762;28;20086;-84
2022/04/03 00:33:11;;;;;;;8.80;2.47;;;-0.90;99.90;;;;;;4997183;28;20045;-84
2022/04/03 00:35:55;;;;;;;6.17;2.73;;;;;;;;;;4997317;28;20063;-84
2022/04/03 00:38:40;;;;;;;5.87;2.77;;;;;;;;;;5011884;28;20072;-84
2022/04/03 00:41:24;;;;;;;4.87;3.07;;;;;;;;;;5011443;28;20048;-84
2022/04/03 00:44:09;;;;;;;4.30;2.60;;;;;;;;;;5011977;28;20516;-84
2022/04/03 00:46:55;;;;;;;7.27;2.83;;;-0.90;99.90;;;;;;4997358;28;20397;-84
2022/04/03 00:49:40;;;;;;;6.40;3.03;;;;;;;;;;4997038;28;20099;-84
2022/04/03 00:52:25;;;;;;;4.23;2.40;;;;;;;;;;4982930;28;20056;-84
2022/04/03 00:55:09;;;;;;;4.63;2.20;;;-0.90;99.90;;;;;;4997202;28;20501;-84
2022/04/03 00:57:54;;;;;;;6.03;2.80;;;;;;;;;;5011642;28;20205;-84
2022/04/03 01:00:39;;;;;;;5.00;2.80;;;;;;;;;;4996286;28;20125;-84
2022/04/03 01:03:23;;;;;;;4.47;2.30;;;;;;;;;;4996475;28;20397;-84
2022/04/03 01:06:08;;;;;;;7.97;2.77;;;;;;;;;;4992113;28;20041;-85
2022/04/03 01:08:53;;;;;;;5.17;3.10;;;;;;;;;;4992123;28;20046;-84
2022/04/03 01:11:39;;;;;;;5.07;3.10;;;-0.90;99.90;;;;;;4981292;28;20033;-84
2022/04/03 01:14:37;;;;;;;5.87;2.80;;;-1.00;99.90;;;;;;5000215;28;20501;-84
2022/04/03 01:17:21;;;;;;;5.03;2.43;;;;;;;;;;4962817;28;20053;-85
2022/04/03 01:20:06;;;;;;;6.10;3.10;;;-0.90;99.90;;;;;;4994756;28;20440;-84
2022/04/03 01:22:51;;;;;;;4.93;2.47;;;;;;;;;;4996889;28;20144;-84
2022/04/03 01:25:35;;;;;;;4.93;2.63;;;;;;;;;;5005447;28;20440;-84
2022/04/03 01:28:20;;;;;;;7.90;2.67;;;;;;;;;;4993383;28;20069;-86
2022/04/03 01:31:04;;;;;;;5.30;2.80;;;;;;;;;;5011323;28;20056;-84
2022/04/03 01:33:50;;;;;;;7.20;3.17;;;;;;;;;;4996539;28;20107;-83
2022/04/03 01:36:34;;;;;;;5.17;2.77;;;;;;;;;;4995711;28;20049;-84
2022/04/03 01:39:19;;;;;;;6.60;3.43;;;;;;;;;;4982376;28;20065;-85
2022/04/03 01:42:04;;;;;;;8.20;3.27;;;-0.80;99.90;;;;;;5011075;28;20513;-84
2022/04/03 01:44:48;;;;;;;6.63;3.50;;;;;;;;;;5011041;28;20041;-84
2022/04/03 01:47:34;;;;;;;5.97;3.33;;;;;;;;;;5010507;28;20474;-84
2022/04/03 01:50:19;;;;;;;5.80;3.57;;;;;;;;;;4982830;28;20162;-84
2022/04/03 01:53:04;;;;;;;4.77;3.20;;;-1.00;99.90;;;;;;4982603;28;20045;-84
2022/04/03 01:55:58;;;;;;;7.67;3.33;;;-1.00;99.90;;;;;;5010891;28;20045;-84
2022/04/03 01:58:42;;;;;;;5.20;3.60;;;;;;;;;;4995413;28;20110;-84
2022/04/03 02:01:27;;;;;;;8.27;3.50;;;;;;;;;;5010172;28;20060;-84
2022/04/03 02:04:12;;;;;;;5.53;3.00;;;;;;;;;;5010697;28;20048;-84
2022/04/03 02:06:57;;;;;;;7.17;3.67;;;;;;;;;;4995899;28;20110;-84
2022/04/03 02:09:42;;;;;;;5.40;3.60;;;;;;;;;;4995312;28;20832;-84
2022/04/03 02:12:28;;;;;;;6.47;3.23;;;;;;;;;;4981917;28;20045;-85
2022/04/03 02:15:12;;;;;;;6.53;3.17;;;;;;;;;;4995777;28;20107;-84
2022/04/03 02:17:57;;;;;;;3.90;2.83;;;;;;;;;;5010610;28;20122;-84
2022/04/03 02:20:41;;;;;;;7.60;3.43;;;;;;;;;;4995088;28;20551;-84
2022/04/03 02:23:26;;;;;;;5.67;3.00;;;;;;;;;;4995252;28;20121;-86
2022/04/03 02:26:10;;;;;;;4.77;3.50;;;;;;;;;;4995610;28;20081;-84
2022/04/03 02:28:55;;;;;;;8.23;3.57;;;;;;;;;;5010524;28;20094;-84
2022/04/03 02:31:39;;;;;;;5.77;3.27;;;;;;;;;;4995023;28;20060;-84
2022/04/03 02:34:24;;;;;;;6.67;3.37;;;;;;;;;;4981958;28;20083;-84
2022/04/03 02:37:08;;;;;;;7.20;3.23;;;;;;;;;;4995395;28;20064;-84
2022/04/03 02:39:53;;;;;;;7.00;3.60;;;;;;;;;;5009918;28;20111;-84
2022/04/03 02:42:38;;;;;;;6.70;3.93;;;;;;;;;;4981243;28;20045;-84
2022/04/03 02:45:23;;;;;;;9.83;3.93;;;;;;;;;;5010228;28;20068;-84
2022/04/03 02:48:08;;;;;;;6.53;3.47;;;-1.10;99.90;;;;;;5009437;28;20041;-84
2022/04/03 02:50:52;;;;;;;8.57;3.63;;;;;;;;;;5009993;28;20107;-84
2022/04/03 02:53:37;;;;;;;5.80;3.90;;;;;;;;;;4981075;28;20075;-84
2022/04/03 02:56:21;;;;;;;7.47;3.80;;;;;;;;;;4981597;28;20106;-84
2022/04/03 02:59:06;;;;;;;5.83;3.50;;;;;;;;;;4995105;28;20501;-83
2022/04/03 03:01:50;;;;;;;7.20;3.80;;;;;;;;;;4994642;28;20117;-84
2022/04/03 03:04:35;;;;;;;9.70;4.03;;;;;;;;;;4994390;28;20167;-84
2022/04/03 03:07:21;;;;;;;6.03;3.90;;;;;;;;;;4980588;28;20049;-84
2022/04/03 03:10:07;;;;;;;7.17;4.60;;;-0.30;99.90;;;;;;5002828;28;20389;-84
2022/04/03 03:12:51;;;;;;;6.10;3.73;;;;;;;;;;4975145;28;20053;-84
2022/04/03 03:15:36;;;;;;;6.20;3.73;;;;;;;;;;4989633;28;20121;-84
2022/04/03 03:18:20;;;;;;;8.07;3.53;;;;;;;;;;4975595;28;20061;-84
2022/04/03 03:21:05;;;;;;;6.07;3.57;;;;;;;;;;4990091;28;20455;-83
2022/04/03 03:23:49;;;;;;;9.17;3.70;;;;;;;;;;4974824;28;20041;-83
2022/04/03 03:26:34;;;;;;;9.60;3.67;;;;;;;;;;4961256;28;20049;-85
2022/04/03 03:29:19;;;;;;;9.90;4.47;;;;;;;;;;4961691;28;20046;-83
2022/04/03 03:32:04;;;;;;;7.60;4.20;;;;;;;;;;4989995;28;20067;-84
2022/04/03 03:34:48;;;;;;;7.53;3.60;;;;;;;;;;4989261;28;20107;-84
2022/04/03 03:37:33;;;;;;;10.77;4.00;;;;;;;;;;4975101;28;20155;-85
2022/04/03 03:40:18;;;;;;;5.77;4.13;;;;;;;;;;4975408;28;20080;-84
2022/04/03 03:43:03;;;;;;;8.20;3.83;;;;;;;;;;4975040;28;20103;-83
2022/04/03 03:45:47;;;;;;;6.10;3.50;;;;;;;;;;4989238;28;20164;-84
2022/04/03 03:48:32;;;;;;;7.37;3.73;;;;;;;;;;4974937;28;20061;-84
2022/04/03 03:51:16;;;;;;;6.03;3.50;;;;;;;;;;4975093;28;20038;-84
2022/04/03 03:54:01;;;;;;;5.30;3.00;;;;;;;;;;4989389;28;20042;-84
2022/04/03 03:56:45;;;;;;;8.67;3.73;;;;;;;;;;4989194;28;20033;-84
2022/04/03 03:59:30;;;;;;;7.33;3.60;;;;;;;;;;4963014;28;20104;-84
2022/04/03 04:02:14;;;;;;;6.23;4.10;;;;;;;;;;4978297;28;20125;-84
2022/04/03 04:04:59;;;;;;;6.60;3.60;;;;;;;;;;4992556;28;20180;-84
2022/04/03 04:07:45;;;;;;;11.27;3.63;;;0.20;99.90;;;;;;4977800;28;20050;-84
2022/04/03 04:10:30;;;;;;;6.23;3.77;;;;;;;;;;4978425;28;20049;-84
2022/04/03 04:13:14;;;;;;;8.07;4.60;;;;;;;;;;4992909;28;20061;-84
2022/04/03 04:15:59;;;;;;;4.80;3.40;;;;;;;;;;4977638;28;20045;-84
2022/04/03 04:18:44;;;;;;;7.77;3.50;;;;;;;;;;4964186;28;20053;-84
2022/04/03 04:21:29;;;;;;;7.30;3.57;;;;;;;;;;4992777;28;20134;-84
2022/04/03 04:24:14;;;;;;;6.00;3.83;;;;;;;;;;4992852;28;20152;-84
2022/04/03 04:26:59;;;;;;;6.13;3.47;;;;;;;;;;4992111;28;20061;-84
2022/04/03 04:29:44;;;;;;;7.50;3.13;;;;;;;;;;4977188;28;20041;-85
2022/04/03 04:32:28;;;;;;;5.83;3.20;;;;;;;;;;4978001;28;20130;-84
2022/04/03 04:35:13;;;;;;;4.33;2.90;;;;;;;;;;4977788;28;20438;-84
2022/04/03 04:37:57;;;;;;;6.23;3.87;;;;;;;;;;4977106;28;20414;-85
2022/04/03 04:40:45;;;;;;;6.63;3.27;;;0.20;99.90;;;;;;4977370;28;20145;-86
2022/04/03 04:43:30;;;;;;;7.53;3.87;;;;;;;;;;4977659;28;20084;-85
2022/04/03 04:46:14;;;;;;;5.47;2.80;;;;;;;;;;4977633;28;20524;-85
2022/04/03 04:48:59;;;;;;;6.67;3.27;;;;;;;;;;4991863;28;20126;-84
2022/04/03 04:51:43;;;;;;;8.03;3.23;;;0.00;99.90;;;;;;4977295;28;20041;-86
2022/04/03 04:54:29;;;;;;;6.07;3.30;;;;;;;;;;4992227;28;20406;-85
2022/04/03 04:57:14;;;;;;;7.87;3.87;;;;;;;;;;4964392;28;20073;-84
2022/04/03 04:59:59;;;;;;;4.87;3.00;;;0.00;99.90;;;;;;4991639;28;20057;-84
2022/04/03 05:02:46;;;;;;;4.90;3.17;;;;;;;;;;4977546;28;20045;-87
2022/04/03 05:05:32;;;;;;;6.73;3.00;;;;;;;;;;4964225;28;20046;-85
2022/04/03 05:08:18;;;;;;;4.50;3.17;;;0.10;99.90;;;;;;4977330;28;20045;-84
2022/04/03 05:11:03;;;;;;;5.87;3.37;;;;;;;;;;4984177;28;20141;-84
2022/04/03 05:13:47;;;;;;;8.87;3.63;;;;;;;;;;4983005;28;20554;-86
2022/04/03 05:16:32;;;;;;;10.57;3.63;;;;;;;;;;4991857;28;20049;-84
2022/04/03 05:19:17;;;;;;;5.13;3.47;;;;;;;;;;4991955;28;20080;-84
2022/04/03 05:22:01;;;;;;;6.43;3.20;;;;;;;;;;4991404;28;20061;-85
2022/04/03 05:24:45;;;;;;;5.60;3.27;;;;;;;;;;4991879;28;20215;-85
2022/04/03 05:27:30;;;;;;;7.37;3.13;;;;;;;;;;4991796;28;20100;-85
2022/04/03 05:30:15;;;;;;;6.13;3.27;;;0.00;99.90;;;;;;4991879;28;20041;-84
2022/04/03 05:33:00;;;;;;;5.10;3.10;;;;;;;;;;4976377;28;20045;-84
2022/04/03 05:35:45;;;;;;;6.33;3.33;;;;;;;;;;4976950;28;20118;-84
2022/04/03 05:38:30;;;;;;;6.07;3.23;;;;;;;;;;4991295;28;20058;-85
2022/04/03 05:41:14;;;;;;;6.73;3.70;;;;;;;;;;4976636;28;20053;-85
2022/04/03 05:44:00;;;;;;;5.33;3.47;;;;;;;;;;4991027;28;20042;-88
2022/04/03 05:46:44;;;;;;;5.83;3.30;;;;;;;;;;4991603;28;20042;-84
2022/04/03 05:49:29;;;;;;;9.27;3.90;;;;;;;;;;4974498;28;20053;-85
2022/04/03 05:52:13;;;;;;;9.30;5.00;;;;;;;;;;4983576;28;20062;-85
2022/04/03 05:54:57;;;;;;;6.63;3.53;;;;;;;;;;4983293;28;20069;-85
2022/04/03 05:57:42;;;;;;;8.10;3.90;;;;;;;;;;4969316;28;20191;-87
2022/04/03 06:00:27;;;;;;;6.27;3.73;;;;;;;;;;4984029;28;20077;-86
2022/04/03 06:03:11;;;;;;;5.67;3.47;;;;;;;;;;4969001;28;20711;-87
2022/04/03 06:05:56;;;;;;;7.13;3.20;;;;;;;;;;4983402;28;20045;-87
2022/04/03 06:08:41;;;;;;;5.97;3.43;;;;;;;;;;4971884;28;20045;-86
2022/04/03 06:11:26;;;;;;;5.07;3.40;;;;;;;;;;4980606;28;20045;-86
2022/04/03 06:14:11;;;;;;;8.10;3.20;;;;;;;;;;4984352;28;20063;-86
2022/04/03 06:16:55;;;;;;;4.77;3.03;;;;;;;;;;4968116;28;20042;-86
2022/04/03 06:19:40;;;;;;;4.13;3.00;;;;;;;;;;4983687;28;20138;-87
2022/04/03 06:22:24;;;;;;;5.50;3.13;;;;;;;;;;4982543;28;20096;-86
2022/04/03 06:25:09;;;;;;;6.37;2.50;;;0.80;99.90;;;;;;4983199;28;20057;-86
2022/04/03 06:27:54;;;;;;;5.63;2.53;;;;;;;;;;4982887;28;20463;-86
2022/04/03 06:30:39;;;;;;;4.63;2.63;;;;;;;;;;4983144;28;20085;-87
2022/04/03 06:33:24;;;;;;;7.63;2.73;;;0.80;99.90;;;;;;4983481;28;20041;-87
2022/04/03 06:36:09;;;;;;;7.93;3.37;;;;;;;;;;4981505;28;20606;-86
2022/04/03 06:38:54;;;;;;;5.47;3.20;;;;;;;;;;4968193;28;20384;-88
2022/04/03 06:41:39;;;;;;;4.07;2.60;;;;;;;;;;4983358;28;20092;-85
2022/04/03 06:44:23;;;;;;;5.80;2.60;;;1.30;99.90;;;;;;4968557;28;20049;-85
2022/04/03 06:47:07;;;;;;;5.93;2.43;;;1.50;99.90;;;;;;4982600;28;20050;-85
2022/04/03 06:49:52;;;;;;;4.93;2.73;;;;;;;;;;4983845;28;20127;-86
2022/04/03 06:52:37;;;;;;;10.07;2.83;;;1.90;99.90;;;;;;4992453;28;20052;-87
2022/04/03 06:55:22;;;;;;;7.13;2.77;;;;;;;;;;5017892;28;20056;-86
2022/04/03 06:58:07;;;;;;;5.55;2.20;;;;;;;;;;5008663;28;20133;-89
2022/04/03 07:00:52;;;;;;;4.57;2.27;;;;;;;;;;5001602;28;20045;-87
2022/04/03 07:03:36;;;;;;;3.90;2.53;;;;;;;;;;4999683;28;20084;-90
2022/04/03 07:06:21;;;;;;;5.63;2.33;;;;;;;;;;4988174;28;20071;-86
2022/04/03 07:09:05;;;;;;;3.13;2.20;;;;;;;;;;4973818;28;20057;-85
2022/04/03 07:11:50;;;;;;;7.57;2.67;;;;;;;;;;4987773;28;20052;-87
2022/04/03 07:14:34;;;;;;;5.37;2.20;;;;;;;;;;4989629;28;20461;-87
2022/04/03 07:17:19;;;;;;;4.70;2.17;;;;;;;;;;4982577;28;20110;-86
2022/04/03 07:20:04;;;;;;;5.63;2.15;;;;;;;;;;4977065;28;20095;-85
2022/04/03 07:22:49;;;;;;;3.45;1.90;;;;;;;;;;5000488;28;20049;-86
2022/04/03 07:25:34;;;;;;;4.93;1.73;;;;;;;;;;4991909;28;20128;-86
2022/04/03 07:28:18;;;;;;;5.25;2.13;;;;;;;;;;5003051;28;20041;-85
2022/04/03 07:31:03;;;;;;;3.35;1.73;;;;;;;;;;4993264;28;20045;-85
2022/04/03 07:33:47;;;;;;;5.45;1.80;;;;;;;;;;4994215;28;20049;-86
2022/04/03 07:36:32;;;;;;;5.25;2.05;;;;;;;;;;5022203;28;20086;-85
2022/04/03 07:39:16;;;;;;;7.05;2.17;;;;;;;;;;5008218;28;20079;-85
2022/04/03 07:42:03;;;;;;;3.85;1.30;;;;;;;;;;5008204;28;20125;-85
2022/04/03 07:44:48;;;;;;;6.57;2.63;;;;;;;;;;4994008;28;20113;-85
2022/04/03 07:47:33;;;;;;;7.20;1.52;;;;;;;;;;4994031;28;20500;-85
2022/04/03 07:50:18;;;;;;;5.38;1.60;;;6.80;99.90;;;;;;4992754;28;20237;-85
2022/04/03 07:53:03;;;;;;;5.00;1.63;;;;;;;;;;4993359;28;20041;-85
2022/04/03 07:55:48;;;;;;;8.52;1.98;;;;;;;;;;5007131;28;20070;-85
2022/04/03 07:58:34;;;;;;;10.15;2.10;;;7.40;99.90;;;;;;5012119;28;20083;-85
2022/04/03 08:01:19;;;;;;;5.45;2.05;;;;;;;;;;4992728;28;20111;-85
2022/04/03 08:04:04;;;;;;;9.40;1.77;;;;;;;;;;4992629;28;20539;-85
2022/04/03 08:06:48;;;;;;;13.43;2.28;;;;;;;;;;5008690;28;20084;-85
2022/04/03 08:09:33;;;;;;;6.80;1.95;;;;;;;;;;5007483;28;20049;-84
2022/04/03 08:12:17;;;;;;;6.10;1.50;;;;;;;;;;4993901;28;20044;-85
2022/04/03 08:15:02;;;;;;;6.38;3.45;;;;;;;;;;4994325;28;20045;-87
2022/04/03 08:17:47;;;;;;;4.97;1.45;;;;;;;;;;4994546;28;20049;-84
2022/04/03 08:20:32;;;;;;;2.70;1.27;;;;;;;;;;5008842;28;20104;-85
2022/04/03 08:23:16;;;;;;;4.00;1.30;;;;;;;;;;4999334;28;20049;-84
2022/04/03 08:26:01;;;;;;;4.60;1.20;;;;;;;;;;5003275;28;20037;-84
2022/04/03 08:28:45;;;;;;;7.40;1.42;;;7.30;99.90;;;;;;4999333;28;20060;-85
2022/04/03 08:31:30;;;;;;;5.82;1.70;;;;;;;;;;5008800;28;20551;-86
2022/04/03 08:34:14;;;;;;;5.93;1.30;;;7.60;99.90;;;;;;4999674;28;20084;-85
2022/04/03 08:36:58;;;;;;;4.00;1.42;;;7.40;99.90;;;;;;5044954;28;20133;-84
2022/04/03 08:39:42;;;;;;;2.78;1.40;;;;;;;;;;5111979;28;20059;-84
2022/04/03 08:42:27;;;;;;;4.13;1.50;;;;;;;;;;5096009;28;20039;-84
2022/04/03 08:45:12;;;;;;;4.63;1.20;;;8.00;99.90;;;;;;5097236;28;20042;-84
2022/04/03 08:47:58;;;;;;;6.55;1.55;;;7.80;99.90;;;;;;5093536;28;20043;-85
2022/04/03 08:50:47;;;;;;;5.22;2.17;;;7.90;99.90;;;;;;4964203;28;20168;-85
2022/04/03 08:53:32;;;;;;;3.47;1.40;;;8.00;99.90;;;;;;4991339;28;20053;-83
2022/04/03 08:56:17;;;;;;;5.28;2.00;;;;;;;;;;5007384;28;20053;-85
2022/04/03 08:59:02;;;;;;;3.03;1.27;;;;;;;;;;5008487;28;20041;-84
2022/04/03 09:01:49;;;;;;;5.57;1.58;;;7.50;99.90;;;;;;4993525;28;20037;-85
2022/04/03 09:04:37;;;;;;;4.95;1.60;;;7.30;99.90;;;;;;4993365;28;20542;-84
2022/04/03 09:07:21;;;;;;;3.47;1.10;;;;;;;;;;5012289;28;20078;-83
2022/04/03 09:10:14;;;;;;;2.50;1.45;;;7.20;99.90;;;;;;4989610;28;20129;-83
2022/04/03 09:12:59;;;;;;;2.97;1.40;;;;;;;;;;5005004;28;20409;-83
2022/04/03 09:15:45;;;;;;;3.92;1.33;;;7.30;99.90;;;;;;5002171;28;20040;-83
2022/04/03 09:19:02;;;;;;;2.40;1.23;;;7.20;99.90;;;;;;4991230;28;20092;-83
2022/04/03 09:21:46;;;;;;;2.20;1.10;;;7.70;99.90;;;;;;5009691;28;20036;-83
2022/04/03 09:24:34;;;;;;;3.65;1.15;;;7.30;99.90;;;;;;5007286;28;20072;-82
2022/04/03 09:27:18;;;;;;;4.00;1.17;;;7.20;99.90;;;;;;4998357;28;20036;-83
2022/04/03 09:30:07;;;;;;;6.22;1.45;;;7.30;99.90;;;;;;5005189;28;20041;-82
2022/04/03 09:32:56;;;;;;;5.30;1.23;;;7.30;99.90;;;;;;4988370;28;20041;-83
2022/04/03 09:35:57;;;;;;;2.60;1.00;;;7.40;99.90;;;;;;4973129;28;20472;-84
2022/04/03 09:38:43;;;;;;;3.28;0.93;;;;;;;;;;5007910;28;20525;-84
2022/04/03 09:41:28;;;;;;;4.07;1.00;;;;;;;;;;5000847;28;20069;-83
2022/04/03 09:44:17;;;;;;;3.97;1.25;;;7.90;99.90;;;;;;4982670;28;20064;-87
2022/04/03 09:47:13;;;;;;;3.75;1.30;;;7.60;99.90;;;;;;5000682;28;20044;-83
2022/04/03 09:50:03;;;;;;;4.72;1.50;;;7.80;99.90;;;;;;5004796;28;20543;-85
2022/04/03 09:52:51;;;;;;;5.05;2.03;;;;;;;;;;5007624;28;20049;-84
2022/04/03 09:55:41;;;;;;;4.07;1.27;;;8.00;99.90;;;;;;5061960;28;20571;-86
2022/04/03 09:58:26;;;;;;;7.22;1.30;;;;;;;;;;5000768;28;20161;-86
2022/04/03 10:01:27;;;;;;;4.07;1.17;;;7.50;99.90;;;;;;5050177;28;20053;-85
2022/04/03 10:04:14;;;;;;;3.60;1.20;;;7.50;99.90;;;;;;5007568;28;20073;-81
2022/04/03 10:06:59;;;;;;;5.32;1.58;;;;;;;;;;4988682;28;20037;-85
2022/04/03 10:09:47;;;;;;;2.50;1.20;;;7.00;99.90;;;;;;4995016;28;20471;-84
2022/04/03 10:12:32;;;;;;;6.80;1.20;;;;;;;;;;5013357;28;20500;-86
2022/04/03 10:15:17;;;;;;;3.28;1.40;;;6.80;99.90;;;;;;5000743;28;20037;-86
2022/04/03 10:18:02;;;;;;;2.80;1.10;;;6.70;99.90;;;;;;4992559;28;20048;-83
2022/04/03 10:20:47;;;;;;;3.13;1.13;;;6.60;99.90;;;;;;4981188;28;20060;-84
2022/04/03 10:23:33;;;;;;;2.45;1.17;;;6.70;99.90;;;;;;4971475;28;20045;-83
2022/04/03 10:26:18;;;;;;;3.95;1.10;;;;;;;;;;4987941;28;20045;-88
2022/04/03 10:29:09;;;;;;;3.17;0.90;;;7.90;99.90;;;;;;4972876;28;20086;-85
2022/04/03 10:31:59;;;;;;;7.40;2.22;;;8.20;99.90;;;;;;4972622;28;20041;-84
2022/04/03 10:34:50;;;;;;;2.75;1.08;;;8.10;99.90;;;;;;4987010;28;20042;-84
2022/04/03 10:37:43;;;;;;;2.58;1.30;;;8.10;99.90;;;;;;4971068;28;20458;-84
2022/04/03 10:40:31;;;;;;;3.47;1.10;;;8.00;99.90;;;;;;5002469;28;20052;-85
2022/04/03 10:43:26;;;;;;;2.30;1.08;;;8.10;99.90;;;;;;5006742;28;20515;-84
2022/04/03 10:46:10;;;;;;;11.82;1.20;;;;;;;;;;4991879;28;20390;-84
2022/04/03 10:48:55;;;;;;;3.47;0.98;;;;;;;;;;5006278;28;20117;-84
2022/04/03 10:51:39;;;;;;;4.50;0.88;;;;;;;;;;4977738;28;20566;-83
2022/04/03 10:54:30;;;;;;;3.45;0.85;;;9.60;99.90;;;;;;4991504;28;20421;-85
2022/04/03 10:57:43;;;;;;;2.05;0.85;;;9.50;99.90;;;;;;4991604;28;20063;-84
2022/04/03 11:00:28;;;;;;;3.00;1.00;;;;;;;;;;5005403;28;20033;-84
2022/04/03 11:03:13;;;;;;;1.40;0.65;;;;;;;;;;5006377;28;20128;-84
2022/04/03 11:06:18;;;;;;;3.03;1.00;;;8.90;97.70;;;;;;4989660;28;20147;-83
2022/04/03 11:09:23;;;;;;;4.72;1.23;;;8.50;98.80;;;;;;4971680;28;20053;-84
2022/04/03 11:12:07;;;;;;;7.03;1.10;;;;;;;;;;4998898;28;20088;-83
2022/04/03 11:14:57;;;;;;;2.53;1.20;;;8.00;99.90;;;;;;4972216;28;20129;-84
2022/04/03 11:17:49;;;;;;;6.97;1.58;;;7.80;99.90;;;;;;5011039;28;20044;-83
2022/04/03 11:20:38;;;;;;;7.05;1.38;;;7.80;99.90;;;;;;4982605;28;20453;-84
2022/04/03 11:23:23;;;;;;;2.97;1.15;;;7.70;99.90;;;;;;4993783;28;20045;-83
2022/04/03 11:26:08;;;;;;;3.83;1.10;;;;;;;;;;4986546;28;20053;-83
2022/04/03 11:28:53;;;;;;;3.67;1.52;;;;;;;;;;4986614;28;20053;-83
2022/04/03 11:31:39;;;;;;;3.10;1.17;;;;;;;;;;4971371;28;20125;-84
2022/04/03 11:34:31;;;;;;;4.07;1.33;;;8.40;99.90;;;;;;4987037;28;20045;-83
2022/04/03 11:37:15;;;;;;;3.15;1.15;;;;;;;;;;5005468;28;20048;-84
2022/04/03 11:40:00;;;;;;;5.57;1.73;;;;;;;;;;5005898;28;20100;-84
2022/04/03 11:42:45;;;;;;;3.03;1.15;;;;;;;;;;5005262;28;20102;-84
2022/04/03 11:45:29;;;;;;;4.45;1.20;;;;;;;;;;5005586;28;20049;-86
2022/04/03 11:48:25;;;;;;;3.80;0.98;;;9.50;99.90;;;;;;4990508;28;20060;-84
2022/04/03 11:51:14;;;;;;;1.92;0.95;;;9.80;99.90;;;;;;5006330;28;20037;-84
2022/04/03 11:54:00;;;;;;;3.15;0.80;;;10.10;99.90;;;;;;4999865;28;20566;-84
2022/04/03 11:56:45;;;;;;;1.88;0.93;;;;;;;;;;4976239;28;20111;-83
2022/04/03 11:59:33;;;;;;;2.83;1.17;;;10.40;96.20;;;;;;4990305;28;20060;-87
2022/04/03 12:02:19;;;;;;;1.30;0.77;;;10.30;96.40;;;;;;5005709;28;20048;-83
2022/04/03 12:05:03;;;;;;;2.47;0.95;;;10.50;96.80;;;;;;5005622;28;20060;-85
2022/04/03 12:07:49;;;;;;;2.75;0.70;;;10.80;93.00;;;;;;4990506;28;20456;-89
2022/04/03 12:10:33;;;;;;;2.90;1.02;;;10.80;93.30;;;;;;4976834;28;20207;-84
2022/04/03 12:13:18;;;;;;;2.13;0.88;;;10.90;93.30;;;;;;5002328;28;20041;-83
2022/04/03 12:16:04;;;;;;;1.17;0.70;;;11.00;93.00;;;;;;4993095;28;20045;-83
2022/04/03 12:18:55;;;;;;;1.55;0.70;;;10.80;91.50;;;;;;4989477;28;20053;-84
2022/04/03 12:21:47;;;;;;;4.13;0.80;;;10.60;91.90;;;;;;4991424;28;20134;-83
2022/04/03 12:24:34;;;;;;;1.67;0.85;;;10.30;92.70;;;;;;5007723;28;20544;-85
2022/04/03 12:27:22;;;;;;;2.55;0.85;;;9.80;94.50;;;;;;5001999;28;20082;-82
2022/04/03 12:30:09;;;;;;;1.20;0.70;;;9.40;95.40;;;;;;5007522;28;20038;-83
2022/04/03 12:32:54;;;;;;;0.90;0.60;;;;;;;;;;4987721;28;20046;-84
2022/04/03 12:35:40;;;;;;;2.17;0.70;;;8.90;93.50;;;;;;4988358;28;20049;-85
2022/04/03 12:38:29;;;;;;;1.30;0.60;;;8.80;93.70;;;;;;5001180;28;20573;-83
2022/04/03 12:41:14;;;;;;;3.10;1.08;;;8.80;93.80;;;;;;5008003;28;20513;-84
2022/04/03 12:43:59;;;;;;;0.68;0.60;;;8.60;92.40;;;;;;4993203;28;20037;-84
2022/04/03 12:46:48;;;;;;;2.05;0.70;;;8.60;92.00;;;;;;4978819;28;20045;-83
2022/04/03 12:49:34;;;;;;;0.98;0.75;;;;;;;;;;4993464;28;20071;-83
2022/04/03 12:52:20;;;;;;;0.88;0.50;;;8.70;91.80;;;;;;4994059;28;20044;-83
2022/04/03 12:55:23;;;;;;;3.40;0.60;;;8.70;91.80;;;;;;4993885;28;20040;-88
2022/04/03 12:58:26;;;;;;;2.90;0.80;;;8.70;92.00;;;;;;5008030;28;20057;-89
2022/04/03 13:01:16;;;;;;;1.73;0.60;;;8.70;92.60;;;;;;4993968;28;20033;-85
2022/04/03 13:04:01;;;;;;;1.70;1.02;;;8.80;92.80;;;;;;4995987;28;20113;-83
2022/04/03 13:06:46;;;;;;;3.92;1.00;;;8.90;93.60;;;;;;5010408;28;20060;-84
2022/04/03 13:09:31;;;;;;;1.80;0.93;;;9.30;94.30;;;;;;4997289;28;20045;-83
2022/04/03 13:12:26;;;;;;;2.00;0.90;;;9.50;93.60;;;;;;5011385;28;20045;-83
2022/04/03 13:15:10;;;;;;;3.25;0.93;;;9.40;92.80;;;;;;4983251;28;20045;-83
2022/04/03 13:17:55;;;;;;;2.40;1.00;;;9.10;94.90;;;;;;4996203;28;20088;-83
2022/04/03 13:20:39;;;;;;;;;;;9.40;95.20;;;;;;5011845;28;20500;-86
2022/04/03 13:23:24;;;;;;;3.55;1.65;;;9.60;93.90;;;;;;5010616;28;19920;-83
2022/04/03 13:26:08;;;;;;;5.93;1.23;;;9.50;94.20;;;;;;5011700;28;20080;-83
2022/04/03 13:28:52;;;;;;;;;;;9.40;94.20;;;;;;5011352;28;20118;-83
2022/04/03 13:31:38;;;;;;;3.90;1.17;;;9.10;93.70;;;;;;5011079;28;20406;-84
2022/04/03 13:34:22;;;;;;;3.75;0.88;;;;;;;;;;4996750;28;20040;-83
2022/04/03 13:37:07;;;;;;;2.60;0.90;;;;;;;;;;4996373;28;20045;-83
2022/04/03 13:39:51;;;;;;;5.70;1.20;;;;;;;;;;4995221;28;20454;-83
2022/04/03 13:42:35;;;;;;;2.75;0.75;;;8.30;98.30;;;;;;4996057;28;20087;-83
2022/04/03 13:45:56;;;;;;;;;;;8.70;98.30;;;;;;4996448;28;20451;-83
2022/04/03 13:48:26;;;;;;;2.65;1.10;;;8.00;97.50;;;;;;5021607;28;19936;-84
2022/04/03 13:51:13;;;;;;;9.25;1.40;;;8.10;99.30;;;;;;4996384;28;20045;-84
2022/04/03 13:53:57;;;;;;;2.47;1.00;;;;;;;;;;5010454;28;20087;-85
2022/04/03 13:56:42;;;;;;;5.97;1.52;;;;;;;;;;4996223;28;20076;-81
2022/04/03 13:59:26;;;;;;;2.92;1.48;;;8.50;99.90;;;;;;4996071;28;20471;-83
2022/04/03 14:02:12;;;;;;;5.43;1.20;;;;;;;;;;5010953;28;20401;-82
2022/04/03 14:04:57;;;;;;;5.63;1.20;;;8.60;99.90;;;;;;4982137;28;20445;-83
2022/04/03 14:07:41;;;;;;;2.47;1.08;;;;;;;;;;5010763;28;20044;-82
2022/04/03 14:10:26;;;;;;;3.85;1.05;;;8.80;99.90;;;;;;5010749;28;20041;-82
2022/04/03 14:13:11;;;;;;;3.38;1.13;;;;;;;;;;4995949;28;20516;-82
2022/04/03 14:15:57;;;;;;;2.42;1.23;;;8.50;98.60;;;;;;5010237;28;20060;-82
2022/04/03 14:18:41;;;;;;;3.55;1.13;;;8.70;99.90;;;;;;5010592;28;20105;-82
2022/04/03 14:21:27;;;;;;;4.22;1.30;;;;;;;;;;5010596;28;20057;-82
2022/04/03 14:24:11;;;;;;;2.90;1.40;;;;;;;;;;5009945;28;20057;-82
2022/04/03 14:26:56;;;;;;;4.28;1.30;;;;;;;;;;5009968;28;20095;-83
2022/04/03 14:29:41;;;;;;;6.15;1.30;;;;;;;;;;5010459;28;20049;-82
2022/04/03 14:32:25;;;;;;;6.15;1.25;;;;;;;;;;5010373;28;20079;-82
2022/04/03 14:35:10;;;;;;;3.22;1.15;;;;;;;;;;4994995;28;20037;-82
2022/04/03 14:37:54;;;;;;;3.20;1.10;;;8.00;99.40;;;;;;4994756;28;20066;-82
2022/04/03 14:40:39;;;;;;;4.43;1.70;;;;;;;;;;4995259;28;20099;-82
2022/04/03 14:43:24;;;;;;;6.78;1.48;;;;;;;;;;5009369;28;20106;-82
2022/04/03 14:46:08;;;;;;;3.47;1.02;;;8.00;99.10;;;;;;5009556;28;20075;-82
2022/04/03 14:48:52;;;;;;;;;;;8.20;98.50;;;;;;4995076;28;20575;-85
2022/04/03 14:51:37;;;;;;;4.50;0.93;;;8.20;97.40;;;;;;5010366;28;19994;-82
2022/04/03 14:54:22;;;;;;;5.28;1.40;;;8.30;98.40;;;;;;5010530;28;20180;-82
2022/04/03 14:57:09;;;;;;;3.03;0.90;;;;;;;;;;5009675;28;20094;-83
2022/04/03 14:59:55;;;;;;;1.70;1.00;;;8.10;96.30;;;;;;4994977;28;20068;-84
2022/04/03 15:02:39;;;;;;;3.25;0.80;;;;;;;;;;5010172;28;20041;-82
2022/04/03 15:05:24;;;;;;;4.40;0.95;;;;;;;;;;5010222;28;20044;-82
2022/04/03 15:08:09;;;;;;;3.13;1.05;;;7.60;96.60;;;;;;4994737;28;20538;-82
2022/04/03 15:10:54;;;;;;;3.47;1.20;;;;;;;;;;5009718;28;20037;-86
2022/04/03 15:13:38;;;;;;;3.10;1.25;;;;;;;;;;4981602;28;20152;-82
2022/04/03 15:16:23;;;;;;;3.58;1.27;;;;;;;;;;4995132;28;20500;-81
2022/04/03 15:19:07;;;;;;;4.72;1.40;;;;;;;;;;4994607;28;20088;-81
2022/04/03 15:21:52;;;;;;;5.40;1.20;;;;;;;;;;5010046;28;20485;-82
2022/04/03 15:24:38;;;;;;;2.63;1.55;;;;;;;;;;5009804;28;20095;-82
2022/04/03 15:27:23;;;;;;;3.90;1.20;;;;;;;;;;5009774;28;20052;-82
2022/04/03 15:30:07;;;;;;;2.45;1.10;;;7.40;99.90;;;;;;4994514;28;20061;-82
2022/04/03 15:32:52;;;;;;;3.85;1.00;;;;;;;;;;4995008;28;20110;-82
2022/04/03 15:35:37;;;;;;;4.53;1.00;;;;;;;;;;5009808;28;20513;-81
2022/04/03 15:38:21;;;;;;;2.28;1.10;;;;;;;;;;4994461;28;20068;-82
2022/04/03 15:41:07;;;;;;;3.47;1.17;;;;;;;;;;4993926;28;20110;-82
2022/04/03 15:43:52;;;;;;;4.15;0.98;;;;;;;;;;4981494;28;20520;-82
2022/04/03 15:46:36;;;;;;;2.22;1.00;;;7.40;99.90;;;;;;5009499;28;20405;-82